AUA423M LOWW-LEPA
Flight info
| Callsign | AUA423M |
|---|---|
| Flight time | 2h 3m |
| Altitude | 34000 |
| Route | RUPET DCT GRZ DCT VAMET DCT BERTA DCT RIFEN/N0445F350 DCT PIDAD DCT TALEP DCT RARQU DCT BALEN UT250 RIXOT |
| Aircraft | A321/M-SDE3FGHIRWY/LB1 |
Departure
| Time | 2026-04-26 13:04 |
|---|---|
| Airport | Vienna International Airport (LOWW) |
Arrival
| Time | 2026-04-26 15:07 |
|---|---|
| Airport | Palma de Mallorca Airport (LEPA) |
| Time | Latitude | Longitude | Altitude | Speed | Heading |
|---|---|---|---|---|---|
| 2026-04-26 12:42 | 48.11591 | 16.57148 | 617 ft | 0 kts | 26° |
| 2026-04-26 12:50 | 48.11590 | 16.57148 | 617 ft | 0 kts | 26° |
| 2026-04-26 12:56 | 48.11595 | 16.57152 | 610 ft | 3 kts | 26° |
| 2026-04-26 12:56 | 48.11631 | 16.57179 | 610 ft | 9 kts | 30° |
| 2026-04-26 12:57 | 48.11634 | 16.57275 | 610 ft | 12 kts | 112° |
| 2026-04-26 12:57 | 48.11593 | 16.57399 | 623 ft | 15 kts | 126° |
| 2026-04-26 12:57 | 48.11502 | 16.57464 | 610 ft | 16 kts | 191° |
| 2026-04-26 12:58 | 48.11290 | 16.57341 | 623 ft | 15 kts | 159° |
| 2026-04-26 12:58 | 48.11239 | 16.57462 | 623 ft | 14 kts | 115° |
| 2026-04-26 12:58 | 48.11197 | 16.57594 | 624 ft | 14 kts | 116° |
| 2026-04-26 12:58 | 48.11149 | 16.57728 | 626 ft | 15 kts | 128° |
| 2026-04-26 12:59 | 48.11056 | 16.57788 | 615 ft | 15 kts | 164° |
| 2026-04-26 12:59 | 48.10943 | 16.57838 | 621 ft | 20 kts | 163° |
| 2026-04-26 12:59 | 48.10798 | 16.57898 | 621 ft | 23 kts | 165° |
| 2026-04-26 12:59 | 48.10639 | 16.57967 | 618 ft | 25 kts | 164° |
| 2026-04-26 13:00 | 48.10471 | 16.58037 | 613 ft | 24 kts | 165° |
| 2026-04-26 13:00 | 48.10314 | 16.58103 | 619 ft | 22 kts | 164° |
| 2026-04-26 13:00 | 48.10171 | 16.58164 | 619 ft | 20 kts | 164° |
| 2026-04-26 13:00 | 48.10041 | 16.58218 | 619 ft | 19 kts | 164° |
| 2026-04-26 13:01 | 48.09917 | 16.58271 | 610 ft | 18 kts | 164° |
| 2026-04-26 13:01 | 48.09793 | 16.58323 | 623 ft | 20 kts | 164° |
| 2026-04-26 13:01 | 48.09653 | 16.58382 | 613 ft | 22 kts | 164° |
| 2026-04-26 13:01 | 48.09487 | 16.58452 | 615 ft | 28 kts | 164° |
| 2026-04-26 13:02 | 48.09283 | 16.58537 | 614 ft | 33 kts | 164° |
| 2026-04-26 13:02 | 48.09065 | 16.58632 | 621 ft | 28 kts | 165° |
| 2026-04-26 13:02 | 48.08933 | 16.58759 | 622 ft | 22 kts | 117° |
| 2026-04-26 13:02 | 48.08939 | 16.58958 | 619 ft | 19 kts | 53° |
| 2026-04-26 13:03 | 48.09050 | 16.59046 | 610 ft | 20 kts | 1° |
| 2026-04-26 13:03 | 48.09260 | 16.58968 | 620 ft | 54 kts | 343° |
| 2026-04-26 13:03 | 48.09831 | 16.58728 | 613 ft | 114 kts | 344° |
| 2026-04-26 13:03 | 48.10752 | 16.58337 | 616 ft | 159 kts | 344° |
| 2026-04-26 13:04 | 48.11837 | 16.57877 | 1194 ft | 161 kts | 344° |
| 2026-04-26 13:04 | 48.12930 | 16.57413 | 1881 ft | 166 kts | 344° |
| 2026-04-26 13:04 | 48.14089 | 16.56832 | 2052 ft | 189 kts | 331° |
| 2026-04-26 13:04 | 48.14914 | 16.55200 | 2208 ft | 218 kts | 288° |
| 2026-04-26 13:05 | 48.14780 | 16.52806 | 2328 ft | 256 kts | 248° |
| 2026-04-26 13:05 | 48.13542 | 16.50810 | 2948 ft | 272 kts | 216° |
| 2026-04-26 13:05 | 48.11857 | 16.49478 | 3764 ft | 276 kts | 207° |
| 2026-04-26 13:05 | 48.10089 | 16.48335 | 4558 ft | 278 kts | 207° |
| 2026-04-26 13:06 | 48.08320 | 16.47170 | 5326 ft | 277 kts | 213° |
| 2026-04-26 13:06 | 48.06775 | 16.45518 | 6088 ft | 272 kts | 226° |
| 2026-04-26 13:06 | 48.05307 | 16.43742 | 6882 ft | 271 kts | 226° |
| 2026-04-26 13:06 | 48.03837 | 16.41954 | 7565 ft | 274 kts | 226° |
| 2026-04-26 13:07 | 48.02352 | 16.40144 | 8154 ft | 278 kts | 226° |
| 2026-04-26 13:07 | 48.00839 | 16.38300 | 8750 ft | 283 kts | 226° |
| 2026-04-26 13:07 | 47.99301 | 16.36426 | 9360 ft | 288 kts | 225° |
| 2026-04-26 13:07 | 47.97736 | 16.34523 | 9957 ft | 292 kts | 225° |
| 2026-04-26 13:08 | 47.96145 | 16.32588 | 10439 ft | 301 kts | 225° |
| 2026-04-26 13:08 | 47.94470 | 16.30546 | 10551 ft | 321 kts | 224° |
| 2026-04-26 13:08 | 47.92691 | 16.28381 | 10677 ft | 339 kts | 224° |
| 2026-04-26 13:08 | 47.90829 | 16.26127 | 11026 ft | 347 kts | 224° |
| 2026-04-26 13:09 | 47.88945 | 16.23863 | 11603 ft | 349 kts | 224° |
| 2026-04-26 13:09 | 47.87037 | 16.21578 | 12139 ft | 353 kts | 224° |
| 2026-04-26 13:09 | 47.85118 | 16.19279 | 12689 ft | 356 kts | 224° |
| 2026-04-26 13:09 | 47.83183 | 16.16953 | 13244 ft | 359 kts | 224° |
| 2026-04-26 13:10 | 47.81251 | 16.14629 | 13777 ft | 363 kts | 224° |
| 2026-04-26 13:10 | 47.79278 | 16.12263 | 14271 ft | 366 kts | 224° |
| 2026-04-26 13:10 | 47.77287 | 16.09876 | 14737 ft | 369 kts | 224° |
| 2026-04-26 13:10 | 47.75279 | 16.07466 | 15198 ft | 373 kts | 224° |
| 2026-04-26 13:11 | 47.73250 | 16.05035 | 15646 ft | 376 kts | 223° |
| 2026-04-26 13:11 | 47.71201 | 16.02583 | 16101 ft | 380 kts | 223° |
| 2026-04-26 13:11 | 47.69137 | 16.00114 | 16528 ft | 383 kts | 223° |
| 2026-04-26 13:11 | 47.67054 | 15.97620 | 16968 ft | 386 kts | 223° |
| 2026-04-26 13:12 | 47.64955 | 15.95111 | 17411 ft | 389 kts | 223° |
| 2026-04-26 13:12 | 47.62834 | 15.92583 | 17818 ft | 392 kts | 223° |
| 2026-04-26 13:12 | 47.60694 | 15.90036 | 18198 ft | 396 kts | 223° |
| 2026-04-26 13:12 | 47.58534 | 15.87474 | 18629 ft | 399 kts | 223° |
| 2026-04-26 13:13 | 47.56361 | 15.84902 | 19001 ft | 401 kts | 222° |
| 2026-04-26 13:13 | 47.54918 | 15.83195 | 19231 ft | 402 kts | 222° |
| 2026-04-26 13:13 | 47.52733 | 15.80613 | 19650 ft | 402 kts | 222° |
| 2026-04-26 13:13 | 47.49807 | 15.77156 | 20133 ft | 403 kts | 222° |
| 2026-04-26 13:14 | 47.48351 | 15.75438 | 20388 ft | 404 kts | 221° |
| 2026-04-26 13:14 | 47.45986 | 15.73140 | 20728 ft | 410 kts | 211° |
| 2026-04-26 13:14 | 47.43348 | 15.71448 | 21072 ft | 415 kts | 204° |
| 2026-04-26 13:14 | 47.40640 | 15.69945 | 21428 ft | 417 kts | 204° |
| 2026-04-26 13:15 | 47.37921 | 15.68432 | 21744 ft | 419 kts | 204° |
| 2026-04-26 13:15 | 47.35189 | 15.66906 | 22087 ft | 420 kts | 204° |
| 2026-04-26 13:15 | 47.32445 | 15.65371 | 22400 ft | 423 kts | 204° |
| 2026-04-26 13:15 | 47.29686 | 15.63828 | 22710 ft | 425 kts | 204° |
| 2026-04-26 13:16 | 47.26913 | 15.62283 | 23052 ft | 427 kts | 204° |
| 2026-04-26 13:16 | 47.24131 | 15.60740 | 23387 ft | 428 kts | 204° |
| 2026-04-26 13:16 | 47.21339 | 15.59193 | 23718 ft | 430 kts | 204° |
| 2026-04-26 13:16 | 47.18529 | 15.57636 | 24003 ft | 432 kts | 204° |
| 2026-04-26 13:17 | 47.12898 | 15.54519 | 24626 ft | 432 kts | 203° |
| 2026-04-26 13:17 | 47.10079 | 15.52959 | 24959 ft | 433 kts | 203° |
| 2026-04-26 13:18 | 47.04423 | 15.49838 | 25576 ft | 434 kts | 203° |
| 2026-04-26 13:18 | 47.01587 | 15.48279 | 25864 ft | 435 kts | 203° |
| 2026-04-26 13:18 | 46.95911 | 15.45131 | 26408 ft | 436 kts | 205° |
| 2026-04-26 13:19 | 46.93208 | 15.43135 | 26719 ft | 435 kts | 211° |
| 2026-04-26 13:19 | 46.90573 | 15.41056 | 27006 ft | 436 kts | 210° |
| 2026-04-26 13:19 | 46.87899 | 15.38952 | 27281 ft | 437 kts | 211° |
| 2026-04-26 13:19 | 46.85212 | 15.36849 | 27547 ft | 438 kts | 211° |
| 2026-04-26 13:20 | 46.82519 | 15.34755 | 27808 ft | 439 kts | 210° |
| 2026-04-26 13:20 | 46.79867 | 15.32546 | 28075 ft | 438 kts | 216° |
| 2026-04-26 13:20 | 46.77477 | 15.29804 | 28312 ft | 437 kts | 225° |
| 2026-04-26 13:20 | 46.75422 | 15.26542 | 28527 ft | 436 kts | 234° |
| 2026-04-26 13:21 | 46.73682 | 15.22918 | 28741 ft | 437 kts | 237° |
| 2026-04-26 13:21 | 46.71968 | 15.19250 | 28954 ft | 439 kts | 237° |
| 2026-04-26 13:21 | 46.70242 | 15.15567 | 29175 ft | 440 kts | 237° |
| 2026-04-26 13:21 | 46.68508 | 15.11880 | 29387 ft | 441 kts | 237° |
| 2026-04-26 13:22 | 46.66765 | 15.08189 | 29590 ft | 443 kts | 237° |
| 2026-04-26 13:22 | 46.65014 | 15.04497 | 29788 ft | 444 kts | 237° |
| 2026-04-26 13:22 | 46.63257 | 15.00801 | 29987 ft | 445 kts | 237° |
| 2026-04-26 13:22 | 46.61493 | 14.97096 | 30179 ft | 446 kts | 237° |
| 2026-04-26 13:23 | 46.59726 | 14.93385 | 30318 ft | 447 kts | 237° |
| 2026-04-26 13:23 | 46.57957 | 14.89668 | 30481 ft | 447 kts | 237° |
| 2026-04-26 13:23 | 46.56189 | 14.85955 | 30683 ft | 447 kts | 237° |
| 2026-04-26 13:23 | 46.54419 | 14.82240 | 30893 ft | 446 kts | 237° |
| 2026-04-26 13:24 | 46.52654 | 14.78539 | 31119 ft | 445 kts | 237° |
| 2026-04-26 13:24 | 46.50882 | 14.74834 | 31357 ft | 444 kts | 237° |
| 2026-04-26 13:24 | 46.49140 | 14.71198 | 31583 ft | 444 kts | 237° |
| 2026-04-26 13:24 | 46.47376 | 14.67527 | 31816 ft | 443 kts | 237° |
| 2026-04-26 13:25 | 46.45615 | 14.63869 | 32063 ft | 442 kts | 237° |
| 2026-04-26 13:25 | 46.43805 | 14.60257 | 32250 ft | 442 kts | 234° |
| 2026-04-26 13:25 | 46.41899 | 14.56749 | 32432 ft | 443 kts | 232° |
| 2026-04-26 13:25 | 46.39925 | 14.53310 | 32625 ft | 443 kts | 232° |
| 2026-04-26 13:26 | 46.37925 | 14.49918 | 32847 ft | 443 kts | 231° |
| 2026-04-26 13:26 | 46.35920 | 14.46531 | 33072 ft | 442 kts | 231° |
| 2026-04-26 13:26 | 46.33931 | 14.43144 | 33293 ft | 441 kts | 232° |
| 2026-04-26 13:26 | 46.31961 | 14.39747 | 33506 ft | 440 kts | 232° |
| 2026-04-26 13:27 | 46.30009 | 14.36346 | 33729 ft | 439 kts | 232° |
| 2026-04-26 13:27 | 46.28059 | 14.32931 | 33944 ft | 439 kts | 232° |
| 2026-04-26 13:27 | 46.26147 | 14.29577 | 34063 ft | 437 kts | 232° |
| 2026-04-26 13:28 | 46.22296 | 14.22846 | 34089 ft | 432 kts | 232° |
| 2026-04-26 13:28 | 46.18460 | 14.16181 | 34091 ft | 431 kts | 232° |
| 2026-04-26 13:29 | 46.14621 | 14.09533 | 34097 ft | 431 kts | 232° |
| 2026-04-26 13:29 | 46.10775 | 14.02907 | 34107 ft | 431 kts | 232° |
| 2026-04-26 13:30 | 46.06927 | 13.96286 | 34093 ft | 430 kts | 232° |
| 2026-04-26 13:30 | 46.03091 | 13.89678 | 34106 ft | 430 kts | 232° |
| 2026-04-26 13:31 | 45.99249 | 13.83079 | 34108 ft | 430 kts | 232° |
| 2026-04-26 13:31 | 45.95403 | 13.76500 | 34113 ft | 430 kts | 232° |
| 2026-04-26 13:32 | 45.91571 | 13.69966 | 34100 ft | 430 kts | 232° |
| 2026-04-26 13:32 | 45.87713 | 13.63411 | 34094 ft | 430 kts | 232° |
| 2026-04-26 13:33 | 45.84107 | 13.56598 | 34088 ft | 427 kts | 241° |
| 2026-04-26 13:33 | 45.81055 | 13.49284 | 34088 ft | 427 kts | 241° |
| 2026-04-26 13:34 | 45.77995 | 13.41987 | 34089 ft | 427 kts | 240° |
| 2026-04-26 13:34 | 45.74935 | 13.34702 | 34091 ft | 427 kts | 240° |
| 2026-04-26 13:35 | 45.71869 | 13.27429 | 34099 ft | 427 kts | 240° |
| 2026-04-26 13:35 | 45.68812 | 13.20202 | 34115 ft | 427 kts | 240° |
| 2026-04-26 13:36 | 45.65732 | 13.12940 | 34116 ft | 427 kts | 240° |
| 2026-04-26 13:36 | 45.62650 | 13.05688 | 34116 ft | 427 kts | 240° |
| 2026-04-26 13:37 | 45.59562 | 12.98445 | 34114 ft | 427 kts | 240° |
| 2026-04-26 13:37 | 45.56469 | 12.91204 | 34111 ft | 427 kts | 240° |
| 2026-04-26 13:38 | 45.53375 | 12.83982 | 34114 ft | 427 kts | 240° |
| 2026-04-26 13:38 | 45.50289 | 12.76809 | 34116 ft | 427 kts | 240° |
| 2026-04-26 13:39 | 45.47183 | 12.69595 | 34118 ft | 427 kts | 240° |
| 2026-04-26 13:39 | 45.44077 | 12.62386 | 34110 ft | 427 kts | 240° |
| 2026-04-26 13:40 | 45.40962 | 12.55189 | 34113 ft | 427 kts | 240° |
| 2026-04-26 13:40 | 45.37863 | 12.48055 | 34110 ft | 427 kts | 240° |
| 2026-04-26 13:41 | 45.34736 | 12.40867 | 34110 ft | 427 kts | 240° |
| 2026-04-26 13:41 | 45.31614 | 12.33695 | 34112 ft | 426 kts | 240° |
| 2026-04-26 13:42 | 45.28482 | 12.26526 | 34104 ft | 426 kts | 239° |
| 2026-04-26 13:42 | 45.25341 | 12.19371 | 34098 ft | 427 kts | 239° |
| 2026-04-26 13:43 | 45.22201 | 12.12228 | 34097 ft | 427 kts | 239° |
| 2026-04-26 13:43 | 45.19076 | 12.05136 | 34094 ft | 426 kts | 239° |
| 2026-04-26 13:44 | 45.15928 | 11.98007 | 34099 ft | 426 kts | 239° |
| 2026-04-26 13:44 | 45.12775 | 11.90883 | 34093 ft | 426 kts | 239° |
| 2026-04-26 13:45 | 45.09618 | 11.83779 | 34088 ft | 426 kts | 239° |
| 2026-04-26 13:45 | 45.06475 | 11.76714 | 34084 ft | 426 kts | 239° |
| 2026-04-26 13:46 | 45.03312 | 11.69626 | 34083 ft | 426 kts | 239° |
| 2026-04-26 13:46 | 45.00143 | 11.62540 | 34082 ft | 426 kts | 239° |
| 2026-04-26 13:47 | 44.96981 | 11.55469 | 34072 ft | 426 kts | 239° |
| 2026-04-26 13:47 | 44.93807 | 11.48398 | 34074 ft | 426 kts | 239° |
| 2026-04-26 13:48 | 44.90622 | 11.41344 | 34073 ft | 426 kts | 239° |
| 2026-04-26 13:48 | 44.87434 | 11.34289 | 34071 ft | 426 kts | 239° |
| 2026-04-26 13:49 | 44.84272 | 11.27295 | 34073 ft | 426 kts | 239° |
| 2026-04-26 13:49 | 44.81075 | 11.20258 | 34068 ft | 426 kts | 239° |
| 2026-04-26 13:50 | 44.77874 | 11.13227 | 34071 ft | 427 kts | 239° |
| 2026-04-26 13:50 | 44.74666 | 11.06188 | 34078 ft | 427 kts | 239° |
| 2026-04-26 13:51 | 44.71457 | 10.99162 | 34077 ft | 427 kts | 239° |
| 2026-04-26 13:51 | 44.68245 | 10.92149 | 34077 ft | 427 kts | 239° |
| 2026-04-26 13:52 | 44.65044 | 10.85190 | 34075 ft | 427 kts | 239° |
| 2026-04-26 13:52 | 44.61819 | 10.78189 | 34080 ft | 427 kts | 239° |
| 2026-04-26 13:53 | 44.58587 | 10.71187 | 34088 ft | 427 kts | 239° |
| 2026-04-26 13:53 | 44.55344 | 10.64205 | 34091 ft | 427 kts | 239° |
| 2026-04-26 13:54 | 44.52105 | 10.57220 | 34093 ft | 427 kts | 239° |
| 2026-04-26 13:54 | 44.48867 | 10.50246 | 34095 ft | 427 kts | 239° |
| 2026-04-26 13:55 | 44.44546 | 10.40986 | 34105 ft | 427 kts | 238° |
| 2026-04-26 13:56 | 44.39119 | 10.29384 | 34110 ft | 427 kts | 238° |
| 2026-04-26 13:56 | 44.35886 | 10.22490 | 34128 ft | 427 kts | 238° |
| 2026-04-26 13:57 | 44.32625 | 10.15564 | 34135 ft | 427 kts | 238° |
| 2026-04-26 13:57 | 44.29359 | 10.08645 | 34156 ft | 426 kts | 238° |
| 2026-04-26 13:58 | 44.26095 | 10.01744 | 34164 ft | 426 kts | 238° |
| 2026-04-26 13:58 | 44.22826 | 9.94846 | 34172 ft | 426 kts | 238° |
| 2026-04-26 13:59 | 44.19555 | 9.87957 | 34174 ft | 426 kts | 238° |
| 2026-04-26 13:59 | 44.16306 | 9.81128 | 34164 ft | 425 kts | 239° |
| 2026-04-26 14:00 | 44.09746 | 9.67405 | 34167 ft | 425 kts | 238° |
| 2026-04-26 14:01 | 44.06455 | 9.60557 | 34170 ft | 425 kts | 238° |
| 2026-04-26 14:01 | 44.03165 | 9.53719 | 34172 ft | 425 kts | 238° |
| 2026-04-26 14:02 | 43.99894 | 9.46930 | 34163 ft | 426 kts | 238° |
| 2026-04-26 14:02 | 43.96594 | 9.40105 | 34160 ft | 426 kts | 239° |
| 2026-04-26 14:03 | 43.93285 | 9.33266 | 34165 ft | 427 kts | 239° |
| 2026-04-26 14:03 | 43.90525 | 9.27578 | 34167 ft | 427 kts | 238° |
| 2026-04-26 14:04 | 43.87203 | 9.20750 | 34167 ft | 427 kts | 238° |
| 2026-04-26 14:04 | 43.83875 | 9.13930 | 34169 ft | 427 kts | 238° |
| 2026-04-26 14:05 | 43.80544 | 9.07103 | 34163 ft | 427 kts | 238° |
| 2026-04-26 14:05 | 43.77214 | 9.00297 | 34176 ft | 426 kts | 238° |
| 2026-04-26 14:06 | 43.73887 | 8.93510 | 34180 ft | 426 kts | 238° |
| 2026-04-26 14:06 | 43.70581 | 8.86789 | 34182 ft | 426 kts | 238° |
| 2026-04-26 14:07 | 43.67240 | 8.80034 | 34171 ft | 426 kts | 237° |
| 2026-04-26 14:07 | 43.65317 | 8.76920 | 34168 ft | 429 kts | 225° |
| 2026-04-26 14:07 | 43.62954 | 8.74381 | 34167 ft | 433 kts | 214° |
| 2026-04-26 14:07 | 43.60247 | 8.72531 | 34163 ft | 437 kts | 202° |
| 2026-04-26 14:08 | 43.57298 | 8.71464 | 34157 ft | 440 kts | 191° |
| 2026-04-26 14:08 | 43.51295 | 8.70140 | 34155 ft | 432 kts | 209° |
| 2026-04-26 14:08 | 43.48854 | 8.67831 | 34151 ft | 423 kts | 227° |
| 2026-04-26 14:09 | 43.46774 | 8.64972 | 34145 ft | 423 kts | 226° |
| 2026-04-26 14:09 | 43.42382 | 8.59518 | 34148 ft | 427 kts | 223° |
| 2026-04-26 14:10 | 43.37813 | 8.54268 | 34146 ft | 429 kts | 222° |
| 2026-04-26 14:10 | 43.33244 | 8.48987 | 34149 ft | 429 kts | 223° |
| 2026-04-26 14:11 | 43.26465 | 8.40981 | 34151 ft | 431 kts | 223° |
| 2026-04-26 14:11 | 43.21919 | 8.35597 | 34157 ft | 432 kts | 223° |
| 2026-04-26 14:12 | 43.17360 | 8.30222 | 34165 ft | 431 kts | 223° |
| 2026-04-26 14:12 | 43.12815 | 8.24879 | 34160 ft | 431 kts | 223° |
| 2026-04-26 14:13 | 43.05983 | 8.16876 | 34158 ft | 431 kts | 223° |
| 2026-04-26 14:14 | 43.01427 | 8.11557 | 34159 ft | 431 kts | 223° |
| 2026-04-26 14:14 | 42.96893 | 8.06266 | 34162 ft | 431 kts | 223° |
| 2026-04-26 14:15 | 42.92323 | 8.00950 | 34172 ft | 432 kts | 223° |
| 2026-04-26 14:15 | 42.87755 | 7.95641 | 34169 ft | 431 kts | 223° |
| 2026-04-26 14:16 | 42.83188 | 7.90351 | 34169 ft | 430 kts | 222° |
| 2026-04-26 14:16 | 42.78631 | 7.85080 | 34175 ft | 429 kts | 223° |
| 2026-04-26 14:17 | 42.74079 | 7.79820 | 34160 ft | 429 kts | 222° |
| 2026-04-26 14:17 | 42.69511 | 7.74564 | 34160 ft | 430 kts | 222° |
| 2026-04-26 14:18 | 42.64943 | 7.69316 | 34158 ft | 430 kts | 222° |
| 2026-04-26 14:18 | 42.60403 | 7.64097 | 34164 ft | 430 kts | 222° |
| 2026-04-26 14:19 | 42.55835 | 7.58858 | 34159 ft | 429 kts | 222° |
| 2026-04-26 14:19 | 42.51269 | 7.53640 | 34162 ft | 429 kts | 222° |
| 2026-04-26 14:20 | 42.46707 | 7.48443 | 34174 ft | 428 kts | 222° |
| 2026-04-26 14:20 | 42.42152 | 7.43261 | 34166 ft | 428 kts | 222° |
| 2026-04-26 14:21 | 42.37626 | 7.38118 | 34153 ft | 428 kts | 222° |
| 2026-04-26 14:21 | 42.33067 | 7.32940 | 34150 ft | 428 kts | 222° |
| 2026-04-26 14:22 | 42.28497 | 7.27765 | 34152 ft | 428 kts | 222° |
| 2026-04-26 14:22 | 42.23919 | 7.22598 | 34159 ft | 429 kts | 221° |
| 2026-04-26 14:23 | 42.19340 | 7.17437 | 34150 ft | 429 kts | 221° |
| 2026-04-26 14:23 | 42.14756 | 7.12285 | 34142 ft | 429 kts | 221° |
| 2026-04-26 14:24 | 42.10169 | 7.07134 | 34150 ft | 429 kts | 221° |
| 2026-04-26 14:24 | 42.05608 | 7.02023 | 34152 ft | 429 kts | 221° |
| 2026-04-26 14:25 | 42.01021 | 6.96867 | 34145 ft | 429 kts | 223° |
| 2026-04-26 14:25 | 41.96588 | 6.91483 | 34147 ft | 429 kts | 224° |
| 2026-04-26 14:26 | 41.92227 | 6.85997 | 34146 ft | 430 kts | 224° |
| 2026-04-26 14:26 | 41.87834 | 6.80548 | 34152 ft | 430 kts | 224° |
| 2026-04-26 14:27 | 41.83413 | 6.75155 | 34157 ft | 430 kts | 224° |
| 2026-04-26 14:27 | 41.78980 | 6.69778 | 34161 ft | 430 kts | 223° |
| 2026-04-26 14:28 | 41.74555 | 6.64395 | 34157 ft | 430 kts | 223° |
| 2026-04-26 14:28 | 41.70142 | 6.59047 | 34157 ft | 430 kts | 223° |
| 2026-04-26 14:29 | 41.65706 | 6.53677 | 34157 ft | 430 kts | 223° |
| 2026-04-26 14:29 | 41.61266 | 6.48298 | 34157 ft | 430 kts | 223° |
| 2026-04-26 14:30 | 41.56827 | 6.42946 | 34159 ft | 430 kts | 223° |
| 2026-04-26 14:30 | 41.52387 | 6.37598 | 34156 ft | 430 kts | 223° |
| 2026-04-26 14:31 | 41.47946 | 6.32255 | 34160 ft | 430 kts | 223° |
| 2026-04-26 14:31 | 41.43497 | 6.26920 | 34160 ft | 430 kts | 223° |
| 2026-04-26 14:32 | 41.39077 | 6.21623 | 34153 ft | 430 kts | 223° |
| 2026-04-26 14:32 | 41.34621 | 6.16300 | 34149 ft | 430 kts | 223° |
| 2026-04-26 14:33 | 41.30161 | 6.10982 | 34154 ft | 430 kts | 223° |
| 2026-04-26 14:33 | 41.25705 | 6.05669 | 34151 ft | 430 kts | 223° |
| 2026-04-26 14:34 | 41.21241 | 6.00362 | 34154 ft | 430 kts | 223° |
| 2026-04-26 14:34 | 41.16807 | 5.95112 | 34153 ft | 430 kts | 223° |
| 2026-04-26 14:35 | 41.12340 | 5.89827 | 34144 ft | 431 kts | 223° |
| 2026-04-26 14:35 | 41.07862 | 5.84536 | 34154 ft | 431 kts | 223° |
| 2026-04-26 14:36 | 41.03377 | 5.79249 | 34154 ft | 432 kts | 223° |
| 2026-04-26 14:36 | 40.98891 | 5.73964 | 34155 ft | 432 kts | 223° |
| 2026-04-26 14:37 | 40.94517 | 5.68526 | 34151 ft | 431 kts | 230° |
| 2026-04-26 14:37 | 40.90987 | 5.62135 | 34155 ft | 430 kts | 235° |
| 2026-04-26 14:38 | 40.87555 | 5.55713 | 34154 ft | 431 kts | 235° |
| 2026-04-26 14:38 | 40.84093 | 5.49243 | 34160 ft | 431 kts | 235° |
| 2026-04-26 14:39 | 40.80625 | 5.42786 | 34160 ft | 431 kts | 235° |
| 2026-04-26 14:39 | 40.77139 | 5.36327 | 34160 ft | 431 kts | 235° |
| 2026-04-26 14:40 | 40.73668 | 5.29920 | 33602 ft | 433 kts | 235° |
| 2026-04-26 14:40 | 40.71898 | 5.26656 | 32283 ft | 441 kts | 235° |
| 2026-04-26 14:40 | 40.70128 | 5.23397 | 31984 ft | 431 kts | 234° |
| 2026-04-26 14:40 | 40.68408 | 5.20234 | 31733 ft | 420 kts | 234° |
| 2026-04-26 14:41 | 40.66717 | 5.17120 | 31211 ft | 416 kts | 235° |
| 2026-04-26 14:41 | 40.65041 | 5.14033 | 30707 ft | 413 kts | 235° |
| 2026-04-26 14:41 | 40.63379 | 5.10970 | 30199 ft | 409 kts | 235° |
| 2026-04-26 14:41 | 40.61732 | 5.07933 | 29661 ft | 405 kts | 234° |
| 2026-04-26 14:42 | 40.60107 | 5.04941 | 29176 ft | 399 kts | 235° |
| 2026-04-26 14:42 | 40.58500 | 5.01992 | 28680 ft | 393 kts | 235° |
| 2026-04-26 14:42 | 40.56914 | 4.99085 | 28215 ft | 387 kts | 235° |
| 2026-04-26 14:42 | 40.55353 | 4.96231 | 27770 ft | 382 kts | 235° |
| 2026-04-26 14:43 | 40.53806 | 4.93411 | 27287 ft | 378 kts | 234° |
| 2026-04-26 14:43 | 40.52287 | 4.90646 | 26868 ft | 376 kts | 234° |
| 2026-04-26 14:43 | 40.50762 | 4.87870 | 26434 ft | 374 kts | 234° |
| 2026-04-26 14:43 | 40.49250 | 4.85111 | 26010 ft | 371 kts | 234° |
| 2026-04-26 14:44 | 40.47745 | 4.82361 | 25595 ft | 369 kts | 234° |
| 2026-04-26 14:44 | 40.46250 | 4.79634 | 25181 ft | 367 kts | 234° |
| 2026-04-26 14:44 | 40.44758 | 4.76922 | 24769 ft | 365 kts | 234° |
| 2026-04-26 14:44 | 40.43275 | 4.74225 | 24361 ft | 363 kts | 234° |
| 2026-04-26 14:45 | 40.41803 | 4.71547 | 23953 ft | 361 kts | 234° |
| 2026-04-26 14:45 | 40.40832 | 4.69781 | 23678 ft | 360 kts | 234° |
| 2026-04-26 14:45 | 40.38881 | 4.66233 | 23067 ft | 357 kts | 234° |
| 2026-04-26 14:45 | 40.37389 | 4.63530 | 22757 ft | 373 kts | 234° |
| 2026-04-26 14:46 | 40.35852 | 4.60753 | 22412 ft | 378 kts | 233° |
| 2026-04-26 14:46 | 40.34303 | 4.57957 | 22068 ft | 379 kts | 234° |
| 2026-04-26 14:46 | 40.32758 | 4.55170 | 21737 ft | 377 kts | 233° |
| 2026-04-26 14:46 | 40.31431 | 4.52776 | 21458 ft | 375 kts | 233° |
| 2026-04-26 14:47 | 40.29901 | 4.50016 | 21118 ft | 374 kts | 233° |
| 2026-04-26 14:47 | 40.28378 | 4.47266 | 20793 ft | 372 kts | 233° |
| 2026-04-26 14:47 | 40.26859 | 4.44532 | 20469 ft | 371 kts | 233° |
| 2026-04-26 14:47 | 40.25346 | 4.41809 | 20158 ft | 369 kts | 233° |
| 2026-04-26 14:48 | 40.23838 | 4.39100 | 19842 ft | 368 kts | 233° |
| 2026-04-26 14:48 | 40.22334 | 4.36401 | 19530 ft | 366 kts | 233° |
| 2026-04-26 14:48 | 40.20836 | 4.33711 | 19100 ft | 366 kts | 233° |
| 2026-04-26 14:48 | 40.19345 | 4.31030 | 18735 ft | 363 kts | 233° |
| 2026-04-26 14:49 | 40.17883 | 4.28408 | 18413 ft | 361 kts | 233° |
| 2026-04-26 14:49 | 40.16400 | 4.25760 | 18049 ft | 361 kts | 233° |
| 2026-04-26 14:49 | 40.14921 | 4.23121 | 17722 ft | 360 kts | 233° |
| 2026-04-26 14:49 | 40.13443 | 4.20485 | 17391 ft | 358 kts | 233° |
| 2026-04-26 14:50 | 40.11975 | 4.17865 | 17067 ft | 356 kts | 233° |
| 2026-04-26 14:50 | 40.10515 | 4.15260 | 16740 ft | 355 kts | 233° |
| 2026-04-26 14:50 | 40.09059 | 4.12665 | 16419 ft | 353 kts | 233° |
| 2026-04-26 14:50 | 40.07612 | 4.10086 | 16097 ft | 352 kts | 233° |
| 2026-04-26 14:51 | 40.06168 | 4.07514 | 15778 ft | 350 kts | 233° |
| 2026-04-26 14:51 | 40.04731 | 4.04957 | 15460 ft | 349 kts | 233° |
| 2026-04-26 14:51 | 40.03317 | 4.02447 | 15147 ft | 347 kts | 233° |
| 2026-04-26 14:51 | 40.01887 | 3.99912 | 14832 ft | 346 kts | 233° |
| 2026-04-26 14:52 | 40.00462 | 3.97390 | 14519 ft | 345 kts | 233° |
| 2026-04-26 14:52 | 39.99042 | 3.94879 | 14203 ft | 343 kts | 233° |
| 2026-04-26 14:52 | 39.97629 | 3.92377 | 13881 ft | 342 kts | 233° |
| 2026-04-26 14:52 | 39.96221 | 3.89885 | 13561 ft | 340 kts | 233° |
| 2026-04-26 14:53 | 39.94826 | 3.87412 | 13238 ft | 337 kts | 233° |
| 2026-04-26 14:53 | 39.93441 | 3.84961 | 12935 ft | 335 kts | 233° |
| 2026-04-26 14:53 | 39.92063 | 3.82533 | 12650 ft | 329 kts | 233° |
| 2026-04-26 14:53 | 39.90748 | 3.80215 | 12514 ft | 316 kts | 232° |
| 2026-04-26 14:54 | 39.89455 | 3.77935 | 12213 ft | 310 kts | 232° |
| 2026-04-26 14:54 | 39.88183 | 3.75691 | 11960 ft | 307 kts | 232° |
| 2026-04-26 14:54 | 39.86920 | 3.73461 | 11711 ft | 305 kts | 233° |
| 2026-04-26 14:54 | 39.85665 | 3.71249 | 11467 ft | 303 kts | 233° |
| 2026-04-26 14:55 | 39.84478 | 3.68991 | 11264 ft | 303 kts | 243° |
| 2026-04-26 14:55 | 39.83774 | 3.66411 | 11031 ft | 302 kts | 253° |
| 2026-04-26 14:55 | 39.83188 | 3.63789 | 10786 ft | 301 kts | 253° |
| 2026-04-26 14:55 | 39.82613 | 3.61183 | 10546 ft | 298 kts | 253° |
| 2026-04-26 14:56 | 39.82060 | 3.58689 | 10316 ft | 297 kts | 253° |
| 2026-04-26 14:56 | 39.81490 | 3.56111 | 10093 ft | 295 kts | 253° |
| 2026-04-26 14:56 | 39.80926 | 3.53550 | 9966 ft | 295 kts | 253° |
| 2026-04-26 14:56 | 39.80365 | 3.51023 | 9837 ft | 295 kts | 253° |
| 2026-04-26 14:57 | 39.79794 | 3.48469 | 9703 ft | 294 kts | 253° |
| 2026-04-26 14:57 | 39.79221 | 3.45916 | 9568 ft | 293 kts | 253° |
| 2026-04-26 14:57 | 39.78649 | 3.43370 | 9443 ft | 294 kts | 253° |
| 2026-04-26 14:57 | 39.78077 | 3.40819 | 9313 ft | 294 kts | 253° |
| 2026-04-26 14:58 | 39.77503 | 3.38260 | 9184 ft | 296 kts | 253° |
| 2026-04-26 14:58 | 39.76933 | 3.35715 | 9045 ft | 288 kts | 253° |
| 2026-04-26 14:58 | 39.76376 | 3.33226 | 8755 ft | 287 kts | 253° |
| 2026-04-26 14:58 | 39.75819 | 3.30744 | 8386 ft | 285 kts | 253° |
| 2026-04-26 14:59 | 39.75265 | 3.28274 | 7993 ft | 284 kts | 253° |
| 2026-04-26 14:59 | 39.74712 | 3.25809 | 7601 ft | 283 kts | 253° |
| 2026-04-26 14:59 | 39.74168 | 3.23389 | 7216 ft | 282 kts | 253° |
| 2026-04-26 14:59 | 39.73797 | 3.21735 | 6946 ft | 282 kts | 253° |
| 2026-04-26 15:00 | 39.73068 | 3.18498 | 6356 ft | 283 kts | 253° |
| 2026-04-26 15:00 | 39.72506 | 3.16029 | 5851 ft | 286 kts | 253° |
| 2026-04-26 15:00 | 39.71941 | 3.13557 | 5414 ft | 285 kts | 253° |
| 2026-04-26 15:00 | 39.71382 | 3.11099 | 5068 ft | 280 kts | 253° |
| 2026-04-26 15:01 | 39.70780 | 3.08766 | 5016 ft | 264 kts | 245° |
| 2026-04-26 15:01 | 39.69940 | 3.06738 | 5016 ft | 247 kts | 237° |
| 2026-04-26 15:01 | 39.69058 | 3.04898 | 4953 ft | 235 kts | 237° |
| 2026-04-26 15:01 | 39.68224 | 3.03142 | 4733 ft | 229 kts | 237° |
| 2026-04-26 15:02 | 39.67400 | 3.01385 | 4423 ft | 226 kts | 237° |
| 2026-04-26 15:02 | 39.66588 | 2.99653 | 4143 ft | 223 kts | 237° |
| 2026-04-26 15:02 | 39.65794 | 2.97959 | 3851 ft | 216 kts | 238° |
| 2026-04-26 15:02 | 39.65018 | 2.96305 | 3547 ft | 212 kts | 238° |
| 2026-04-26 15:03 | 39.64257 | 2.94684 | 3270 ft | 209 kts | 238° |
| 2026-04-26 15:03 | 39.63506 | 2.93084 | 3006 ft | 206 kts | 238° |
| 2026-04-26 15:03 | 39.62766 | 2.91509 | 2727 ft | 202 kts | 237° |
| 2026-04-26 15:03 | 39.62053 | 2.89990 | 2468 ft | 191 kts | 238° |
| 2026-04-26 15:04 | 39.61390 | 2.88580 | 2217 ft | 176 kts | 237° |
| 2026-04-26 15:04 | 39.60788 | 2.87301 | 1991 ft | 161 kts | 237° |
| 2026-04-26 15:04 | 39.60221 | 2.86095 | 1783 ft | 154 kts | 236° |
| 2026-04-26 15:04 | 39.59669 | 2.84923 | 1573 ft | 151 kts | 236° |
| 2026-04-26 15:05 | 39.59123 | 2.83764 | 1378 ft | 150 kts | 237° |
| 2026-04-26 15:05 | 39.58764 | 2.83003 | 1260 ft | 149 kts | 237° |
| 2026-04-26 15:05 | 39.58054 | 2.81496 | 965 ft | 145 kts | 236° |
| 2026-04-26 15:05 | 39.57534 | 2.80395 | 808 ft | 140 kts | 236° |
| 2026-04-26 15:06 | 39.57036 | 2.79328 | 626 ft | 137 kts | 238° |
| 2026-04-26 15:06 | 39.56543 | 2.78290 | 410 ft | 137 kts | 239° |
| 2026-04-26 15:06 | 39.56051 | 2.77236 | 263 ft | 136 kts | 239° |
| 2026-04-26 15:06 | 39.55558 | 2.76200 | 69 ft | 134 kts | 239° |
| 2026-04-26 15:07 | 39.54775 | 2.74541 | 38 ft | 62 kts | 238° |
| 2026-04-26 15:07 | 39.54602 | 2.74179 | 38 ft | 31 kts | 237° |
| 2026-04-26 15:07 | 39.54560 | 2.74020 | 38 ft | 14 kts | 258° |
| 2026-04-26 15:08 | 39.54552 | 2.73889 | 38 ft | 15 kts | 267° |
| 2026-04-26 15:08 | 39.54551 | 2.73789 | 38 ft | 4 kts | 270° |
| 2026-04-26 15:08 | 39.54551 | 2.73775 | 38 ft | 0 kts | 270° |
| 2026-04-26 15:09 | 39.54554 | 2.73746 | 38 ft | 7 kts | 282° |
| 2026-04-26 15:10 | 39.54576 | 2.73672 | 38 ft | 6 kts | 306° |
| 2026-04-26 15:10 | 39.54602 | 2.73639 | 38 ft | 9 kts | 323° |
| 2026-04-26 15:10 | 39.54679 | 2.73601 | 38 ft | 11 kts | 331° |
| 2026-04-26 15:10 | 39.54731 | 2.73585 | 38 ft | 7 kts | 31° |
| 2026-04-26 15:11 | 39.54749 | 2.73615 | 38 ft | 1 kts | 57° |
| 2026-04-26 15:11 | 39.54752 | 2.73622 | 38 ft | 1 kts | 57° |
| 2026-04-26 15:11 | 39.54755 | 2.73627 | 38 ft | 0 kts | 57° |
| 2026-04-26 15:23 | 39.54755 | 2.73626 | 39 ft | 0 kts | 57° |
| 2026-04-26 15:26 | 39.54754 | 2.73626 | 39 ft | 0 kts | 57° |
| 2026-04-26 15:38 | 39.54754 | 2.73625 | 39 ft | 0 kts | 57° |
| 2026-04-26 15:55 | 39.54754 | 2.73624 | 39 ft | 0 kts | 57° |
| 2026-04-26 15:59 | 39.54753 | 2.73624 | 39 ft | 0 kts | 57° |
| 2026-04-26 16:02 | 39.54755 | 2.73627 | 39 ft | 0 kts | 58° |